createdAt,value
2022-12-12T00:01:26.406Z,53.9
2022-12-12T00:06:44.593Z,54.6
2022-12-12T00:12:02.844Z,53.9
2022-12-12T00:17:21.299Z,54
2022-12-12T00:22:40.067Z,54.4
2022-12-12T00:28:04.596Z,54.2
2022-12-12T00:33:23.101Z,54.4
2022-12-12T00:38:41.571Z,54.4
2022-12-12T00:44:00.381Z,53.8
2022-12-12T00:49:18.552Z,53.5
2022-12-12T00:54:37.349Z,53.9
2022-12-12T00:59:55.409Z,53.8
2022-12-12T01:05:15.194Z,54.2
2022-12-12T01:10:33.865Z,53.4
2022-12-12T01:15:52.273Z,53.6
2022-12-12T01:21:10.447Z,53.7
2022-12-12T01:26:29.222Z,53.8
2022-12-12T01:31:47.754Z,54.4
2022-12-12T01:37:05.961Z,54.2
2022-12-12T01:42:24.431Z,53.6
2022-12-12T01:47:42.670Z,54
2022-12-12T01:53:01.131Z,53.4
2022-12-12T01:58:19.883Z,54.2
2022-12-12T02:03:38.689Z,54.2
2022-12-12T02:08:57.171Z,53.5
2022-12-12T02:14:15.652Z,53.7
2022-12-12T02:19:33.894Z,53.7
2022-12-12T02:24:52.161Z,53.8
2022-12-12T02:30:11.259Z,53.4
2022-12-12T02:35:29.804Z,54.1
2022-12-12T02:40:47.999Z,54.3
2022-12-12T02:46:06.747Z,53.5
2022-12-12T02:51:24.997Z,54.2
2022-12-12T02:56:43.217Z,54.4
2022-12-12T03:02:01.674Z,54.3
2022-12-12T03:07:19.653Z,53.7
2022-12-12T03:12:37.859Z,53.9
2022-12-12T03:17:56.617Z,54.5
2022-12-12T03:23:14.851Z,54.4
2022-12-12T03:28:33.317Z,54.2
2022-12-12T03:33:51.810Z,54.6
2022-12-12T03:39:10.045Z,54.1
2022-12-12T03:44:28.540Z,54.8
2022-12-12T03:49:47.316Z,54
2022-12-12T03:55:06.118Z,53.8
2022-12-12T04:00:24.842Z,54.1
2022-12-12T04:05:43.605Z,53.7
2022-12-12T04:11:02.395Z,53.7
2022-12-12T04:16:20.946Z,53.5
2022-12-12T04:21:38.861Z,53.5
2022-12-12T04:26:57.378Z,53.4
2022-12-12T04:32:15.561Z,53.1
2022-12-12T04:37:34.038Z,54.1
2022-12-12T04:42:52.594Z,54.2
2022-12-12T04:48:10.967Z,53
2022-12-12T04:53:29.444Z,52.6
2022-12-12T04:58:47.958Z,52.5
2022-12-12T05:04:06.733Z,52.7
2022-12-12T05:09:25.500Z,52.9
2022-12-12T05:14:44.018Z,52.4
2022-12-12T05:20:02.219Z,53.1
2022-12-12T05:25:20.816Z,53.1
2022-12-12T05:30:39.254Z,53
2022-12-12T05:35:57.737Z,53
2022-12-12T05:41:16.205Z,53.7
2022-12-12T05:46:34.409Z,53.8
2022-12-12T05:51:52.665Z,53
2022-12-12T05:57:11.166Z,53.9
2022-12-12T06:02:29.897Z,52
2022-12-12T06:07:48.407Z,52.2
2022-12-12T06:13:06.344Z,52.9
2022-12-12T06:18:24.443Z,53
2022-12-12T06:23:42.915Z,52.9
2022-12-12T06:29:01.664Z,53
2022-12-12T06:34:04.285Z,53.5
2022-12-12T06:39:22.778Z,52.3
2022-12-12T06:44:41.269Z,52.9
2022-12-12T06:49:59.529Z,53
2022-12-12T06:55:17.700Z,52.5
2022-12-12T07:00:20.009Z,52.5
2022-12-12T07:05:38.704Z,52.8
2022-12-12T07:10:57.488Z,52.2
2022-12-12T07:16:15.914Z,52.5
2022-12-12T07:21:34.144Z,53.1
2022-12-12T07:26:52.594Z,52.3
2022-12-12T07:43:12.990Z,52.9
2022-12-12T07:54:02.599Z,52.1
2022-12-12T07:59:21.120Z,52.8
2022-12-12T08:04:40.096Z,52.5
2022-12-12T08:09:58.581Z,52.2
2022-12-12T08:15:17.292Z,52
2022-12-12T08:20:36.195Z,52.1
2022-12-12T08:25:55.039Z,51.9
2022-12-12T08:31:20.835Z,52.2
2022-12-12T08:42:10.095Z,51.6
2022-12-12T08:47:28.607Z,52.6
2022-12-12T08:52:46.797Z,52.4
2022-12-12T08:58:05.575Z,51.8
2022-12-12T09:03:30.543Z,52.1
2022-12-12T09:08:48.737Z,52.1
2022-12-12T09:14:06.944Z,51.5
2022-12-12T09:19:25.187Z,51.4
2022-12-12T09:24:43.931Z,52.1
2022-12-12T09:30:02.131Z,52.1
2022-12-12T09:35:20.366Z,51.5
2022-12-12T09:40:38.568Z,52
2022-12-12T09:45:57.179Z,51.4
2022-12-12T09:51:15.401Z,51.2
2022-12-12T09:56:33.847Z,51.3
2022-12-12T10:01:52.217Z,51.6
2022-12-12T10:07:10.234Z,52.2
2022-12-12T10:12:28.706Z,51.2
2022-12-12T10:17:47.470Z,52
2022-12-12T10:23:05.713Z,51.2
2022-12-12T10:28:23.904Z,51.2
2022-12-12T10:50:21.101Z,51.6
2022-12-12T10:55:39.851Z,51.3
2022-12-12T11:00:58.635Z,50.9
2022-12-12T11:06:16.608Z,51.7
2022-12-12T11:11:35.364Z,51.6
2022-12-12T11:16:53.612Z,51.6
2022-12-12T11:22:12.428Z,50.9
2022-12-12T11:27:30.630Z,50.9
2022-12-12T11:32:49.403Z,51.5
2022-12-12T11:38:08.228Z,50.8
2022-12-12T11:43:26.961Z,50.6
2022-12-12T11:48:45.729Z,50.6
2022-12-12T11:54:04.040Z,51
2022-12-12T11:59:23.158Z,51.5
2022-12-12T12:04:41.892Z,50.8
2022-12-12T12:10:00.140Z,51.4
2022-12-12T12:20:57.796Z,50.7
2022-12-12T12:37:18.846Z,51
2022-12-12T12:42:37.595Z,51.3
2022-12-12T12:47:56.064Z,50.8
2022-12-12T12:53:14.062Z,51.4
2022-12-12T12:58:32.240Z,50.6
2022-12-12T13:03:51.023Z,51.4
2022-12-12T13:09:09.280Z,51.1
2022-12-12T13:14:30.822Z,50.9
2022-12-12T13:19:49.042Z,51.5
2022-12-12T13:25:07.575Z,50.7
2022-12-12T13:30:26.020Z,50.8
2022-12-12T13:35:43.963Z,51.4
2022-12-12T13:41:01.989Z,51.1
2022-12-12T13:46:20.424Z,50.7
2022-12-12T13:51:38.894Z,51.4
2022-12-12T13:56:57.059Z,51.5
2022-12-12T14:02:15.484Z,51.1
2022-12-12T14:07:34.000Z,50.6
2022-12-12T14:12:52.535Z,51.4
2022-12-12T14:18:11.326Z,51.4
2022-12-12T14:23:29.792Z,51.3
2022-12-12T14:28:48.212Z,50.7
2022-12-12T14:34:06.956Z,51
2022-12-12T14:39:25.699Z,51.3
2022-12-12T14:44:51.599Z,50.9
2022-12-12T14:50:10.075Z,50.5
2022-12-12T14:55:28.546Z,51.2
2022-12-12T15:00:47.444Z,50.3
2022-12-12T15:06:05.955Z,51
2022-12-12T15:11:26.516Z,51.2
2022-12-12T15:16:49.574Z,50.5
2022-12-12T15:22:07.938Z,50.2
2022-12-12T15:27:26.440Z,50.8
2022-12-12T15:32:45.270Z,50.7
2022-12-12T15:38:03.245Z,50.6
2022-12-12T15:43:21.185Z,50.3
2022-12-12T15:48:39.705Z,50.8
2022-12-12T15:53:57.604Z,50.6
2022-12-12T15:59:16.097Z,50.2
2022-12-12T16:04:34.355Z,50.3
2022-12-12T16:09:52.505Z,51
2022-12-12T16:15:11.008Z,51.2
2022-12-12T16:20:31.579Z,51
2022-12-12T16:25:50.043Z,49.8
2022-12-12T16:31:08.434Z,50.1
2022-12-12T16:36:27.196Z,50.3
2022-12-12T16:41:45.885Z,50.2
2022-12-12T16:47:04.377Z,50
2022-12-12T16:52:22.624Z,50.4
2022-12-12T16:57:41.349Z,50.6
2022-12-12T17:02:59.541Z,50.1
2022-12-12T17:08:18.100Z,49.2
2022-12-12T17:13:36.702Z,50.2
2022-12-12T17:18:55.187Z,46.1
2022-12-12T17:24:13.298Z,47.2
2022-12-12T17:29:31.489Z,49.2
2022-12-12T17:34:49.957Z,48.4
2022-12-12T17:40:08.594Z,49.2
2022-12-12T17:45:26.963Z,48.8
2022-12-12T17:50:45.139Z,49.5
2022-12-12T17:56:09.095Z,48.5
2022-12-12T18:01:27.750Z,48.5
2022-12-12T18:06:46.265Z,47.7
2022-12-12T18:12:05.089Z,46.9
2022-12-12T18:17:23.528Z,47.4
2022-12-12T18:22:41.713Z,47.1
2022-12-12T18:28:00.241Z,45.6
2022-12-12T18:33:19.005Z,46.6
2022-12-12T18:38:21.844Z,46.1
2022-12-12T18:43:40.134Z,46.6
2022-12-12T18:48:58.569Z,47.6
2022-12-12T18:54:16.882Z,46.8
2022-12-12T18:59:35.143Z,47.2
2022-12-12T19:04:53.589Z,47.1
2022-12-12T19:10:13.480Z,47.5
2022-12-12T19:15:32.088Z,47.5
2022-12-12T19:20:50.263Z,47.3
2022-12-12T19:26:09.031Z,48.1
2022-12-12T19:31:26.993Z,47.4
2022-12-12T19:36:29.572Z,47.7
2022-12-12T19:41:48.040Z,47.3
2022-12-12T19:47:06.855Z,47.7
2022-12-12T19:52:25.576Z,48.3
2022-12-12T19:57:43.774Z,48.6
2022-12-12T20:03:02.025Z,48.8
2022-12-12T20:08:20.972Z,47.8
2022-12-12T20:13:23.818Z,47.9
2022-12-12T20:18:41.805Z,48.8
2022-12-12T20:24:00.248Z,48.1
2022-12-12T20:29:18.173Z,48.3
2022-12-12T20:34:36.933Z,48.7
2022-12-12T20:39:55.683Z,49.4
2022-12-12T20:45:15.271Z,49
2022-12-12T20:50:34.009Z,49.3
2022-12-12T20:55:52.457Z,48.7
2022-12-12T21:01:10.910Z,48.8
2022-12-12T21:06:28.969Z,48.8
2022-12-12T21:11:46.861Z,48.9
2022-12-12T21:17:05.077Z,48.8
2022-12-12T21:22:23.309Z,49.6
2022-12-12T21:27:41.499Z,50
2022-12-12T21:32:59.689Z,50.3
2022-12-12T21:38:17.948Z,49.2
2022-12-12T21:43:36.137Z,49.1
2022-12-12T21:48:54.604Z,49.3
2022-12-12T21:54:12.844Z,49.1
2022-12-12T21:59:30.753Z,48.9
2022-12-12T22:04:49.492Z,49.5
2022-12-12T22:10:12.421Z,48.5
2022-12-12T22:15:30.872Z,49.2
2022-12-12T22:20:49.362Z,49.3
2022-12-12T22:26:07.836Z,48.6
2022-12-12T22:31:26.091Z,48.3
2022-12-12T22:36:44.255Z,49.6
2022-12-12T22:42:02.749Z,48.8
2022-12-12T22:47:20.905Z,49.6
2022-12-12T22:52:39.144Z,48.8
2022-12-12T22:57:57.100Z,49.5
2022-12-12T23:03:15.565Z,49.3
2022-12-12T23:08:33.689Z,48.7
2022-12-12T23:13:52.041Z,49.2
2022-12-12T23:19:10.242Z,49.2
2022-12-12T23:24:29.007Z,48.9
2022-12-12T23:29:47.537Z,48.9
2022-12-12T23:35:05.721Z,48.7
2022-12-12T23:40:24.214Z,49.6
2022-12-12T23:45:42.543Z,49.1
2022-12-12T23:51:01.308Z,49.6
2022-12-12T23:56:19.799Z,49.1
